createdAt,value
2018-04-12T00:00:17.326Z,8.30
2018-04-12T00:02:43.275Z,10.27
2018-04-12T00:05:09.258Z,10.37
2018-04-12T00:07:35.356Z,11.23
2018-04-12T00:10:01.358Z,7.60
2018-04-12T00:12:27.317Z,7.73
2018-04-12T00:14:53.282Z,6.80
2018-04-12T00:17:19.999Z,7.87
2018-04-12T00:19:45.963Z,8.50
2018-04-12T00:22:11.942Z,7.27
2018-04-12T00:24:37.890Z,9.37
2018-04-12T00:27:03.855Z,9.67
2018-04-12T00:29:30.089Z,16.77
2018-04-12T00:31:56.050Z,8.17
2018-04-12T00:34:22.768Z,7.30
2018-04-12T00:36:48.755Z,8.07
2018-04-12T00:39:14.736Z,9.70
2018-04-12T00:41:40.735Z,6.33
2018-04-12T00:44:06.858Z,5.73
2018-04-12T00:46:32.932Z,9.70
2018-04-12T00:48:58.958Z,7.47
2018-04-12T00:51:24.966Z,10.23
2018-04-12T00:53:59.397Z,7.03
2018-04-12T00:56:26.152Z,8.20
2018-04-12T00:58:52.866Z,7.90
2018-04-12T01:01:18.834Z,7.57
2018-04-12T01:03:46.062Z,6.30
2018-04-12T01:06:12.057Z,6.27
2018-04-12T01:08:38.009Z,6.50
2018-04-12T01:11:04.247Z,8.97
2018-04-12T01:13:30.241Z,7.00
2018-04-12T01:15:56.966Z,8.33
2018-04-12T01:18:22.945Z,11.93
2018-04-12T01:20:49.657Z,4.57
2018-04-12T01:23:15.606Z,8.80
2018-04-12T01:25:41.728Z,7.47
2018-04-12T01:28:07.722Z,7.00
2018-04-12T01:30:33.741Z,5.37
2018-04-12T01:33:12.942Z,8.53
2018-04-12T01:35:38.975Z,8.77
2018-04-12T01:38:04.996Z,7.03
2018-04-12T01:40:31.006Z,6.23
2018-04-12T01:42:56.953Z,6.63
2018-04-12T01:45:22.909Z,8.13
2018-04-12T01:47:48.890Z,11.57
2018-04-12T01:50:15.581Z,13.57
2018-04-12T01:52:41.572Z,8.50
2018-04-12T01:55:08.350Z,7.43
2018-04-12T01:57:35.083Z,10.57
2018-04-12T02:00:01.846Z,11.03
2018-04-12T02:02:29.086Z,9.53
2018-04-12T02:04:55.841Z,10.77
2018-04-12T02:07:21.815Z,9.97
2018-04-12T02:09:48.565Z,12.20
2018-04-12T02:12:15.270Z,12.37
2018-04-12T02:14:41.237Z,12.33
2018-04-12T02:17:07.288Z,14.23
2018-04-12T02:19:33.286Z,15.20
2018-04-12T02:21:59.409Z,15.33
2018-04-12T02:24:25.474Z,12.80
2018-04-12T02:26:51.445Z,15.97
2018-04-12T02:29:17.436Z,15.67
2018-04-12T02:31:43.575Z,13.87
2018-04-12T02:34:09.606Z,14.53
2018-04-12T02:36:35.613Z,13.93
2018-04-12T02:39:01.798Z,14.23
2018-04-12T02:41:27.769Z,16.60
2018-04-12T02:43:54.507Z,18.50
2018-04-12T02:46:21.277Z,17.10
2018-04-12T02:48:48.080Z,17.70
2018-04-12T02:51:14.136Z,17.97
2018-04-12T02:53:40.118Z,23.50
2018-04-12T02:56:06.096Z,17.73
2018-04-12T02:58:32.094Z,23.60
2018-04-12T03:00:58.483Z,17.50
2018-04-12T03:03:24.684Z,20.53
2018-04-12T03:05:50.652Z,21.73
2018-04-12T03:08:16.663Z,22.43
2018-04-12T03:10:42.929Z,23.27
2018-04-12T03:13:09.069Z,23.33
2018-04-12T03:15:35.096Z,24.57
2018-04-12T03:18:01.193Z,29.03
2018-04-12T03:20:27.218Z,25.03
2018-04-12T03:22:53.980Z,22.63
2018-04-12T03:25:20.675Z,27.30
2018-04-12T03:27:46.668Z,22.53
2018-04-12T03:30:13.427Z,32.07
2018-04-12T03:32:40.144Z,24.23
2018-04-12T03:35:06.179Z,24.00
2018-04-12T03:37:32.195Z,25.47
2018-04-12T03:39:58.192Z,24.27
2018-04-12T03:42:24.941Z,26.13
2018-04-12T03:44:51.732Z,25.43
2018-04-12T03:47:17.740Z,24.20
2018-04-12T03:49:43.746Z,24.30
2018-04-12T03:52:09.876Z,23.13
2018-04-12T03:54:35.869Z,25.93
2018-04-12T03:57:01.902Z,24.17
2018-04-12T03:59:27.895Z,24.47
2018-04-12T04:01:53.871Z,24.90
2018-04-12T04:04:19.888Z,22.83
2018-04-12T04:06:45.961Z,25.00
2018-04-12T04:09:12.034Z,19.57
2018-04-12T04:11:38.038Z,22.77
2018-04-12T04:14:04.623Z,20.33
2018-04-12T04:16:43.102Z,20.57
2018-04-12T04:19:22.171Z,19.37
2018-04-12T04:21:48.132Z,23.33
2018-04-12T04:24:14.091Z,20.40
2018-04-12T04:26:41.039Z,20.07
2018-04-12T04:29:07.082Z,23.30
2018-04-12T04:31:33.894Z,21.93
2018-04-12T04:33:59.892Z,24.10
2018-04-12T04:36:25.859Z,18.53
2018-04-12T04:38:51.844Z,17.43
2018-04-12T04:41:18.590Z,16.93
2018-04-12T04:43:45.309Z,19.93
2018-04-12T04:46:11.313Z,18.47
2018-04-12T04:48:37.442Z,16.70
2018-04-12T04:51:03.544Z,17.53
2018-04-12T04:53:30.320Z,19.57
2018-04-12T04:55:57.080Z,15.97
2018-04-12T04:58:23.790Z,13.93
2018-04-12T05:00:49.771Z,15.63
2018-04-12T05:03:16.567Z,16.00
2018-04-12T05:05:42.563Z,17.77
2018-04-12T05:08:08.624Z,20.17
2018-04-12T05:10:34.758Z,24.90
2018-04-12T05:13:00.747Z,25.30
2018-04-12T05:15:26.714Z,20.23
2018-04-12T05:17:53.669Z,21.93
2018-04-12T05:20:20.374Z,22.80
2018-04-12T05:22:46.351Z,25.67
2018-04-12T05:25:13.083Z,26.80
2018-04-12T05:27:39.064Z,22.63
2018-04-12T05:30:05.131Z,27.67
2018-04-12T05:32:31.155Z,22.87
2018-04-12T05:34:57.192Z,24.00
2018-04-12T05:37:23.852Z,27.23
2018-04-12T05:39:49.865Z,25.13
2018-04-12T05:42:15.827Z,21.87
2018-04-12T05:44:41.804Z,23.87
2018-04-12T05:47:08.627Z,18.93
2018-04-12T05:49:34.621Z,16.60
2018-04-12T05:52:00.670Z,19.43
2018-04-12T05:54:26.650Z,17.13
2018-04-12T05:56:52.628Z,18.87
2018-04-12T05:59:18.604Z,15.80
2018-04-12T06:01:44.742Z,20.33
2018-04-12T06:04:10.719Z,18.20
2018-04-12T06:06:36.810Z,24.60
2018-04-12T06:09:02.926Z,13.00
2018-04-12T06:11:28.893Z,25.43
2018-04-12T06:13:54.863Z,16.60
2018-04-12T06:16:21.594Z,15.73
2018-04-12T06:18:47.592Z,13.83
2018-04-12T06:21:13.580Z,13.37
2018-04-12T06:23:40.318Z,16.13
2018-04-12T06:26:06.331Z,12.00
2018-04-12T06:28:32.375Z,8.63
2018-04-12T06:30:58.372Z,12.93
2018-04-12T06:33:24.341Z,14.50
2018-04-12T06:35:50.307Z,15.47
2018-04-12T06:38:16.518Z,12.70
2018-04-12T06:40:42.499Z,12.60
2018-04-12T06:43:09.222Z,14.90
2018-04-12T06:45:35.384Z,12.03
2018-04-12T06:48:02.170Z,10.87
2018-04-12T06:50:28.197Z,14.57
2018-04-12T06:52:54.289Z,13.60
2018-04-12T06:55:20.247Z,16.93
2018-04-12T06:57:46.947Z,14.50
2018-04-12T07:00:13.322Z,14.57
2018-04-12T07:02:39.300Z,11.70
2018-04-12T07:05:05.418Z,15.17
2018-04-12T07:07:32.207Z,12.70
2018-04-12T07:09:58.184Z,13.43
2018-04-12T07:12:24.164Z,17.07
2018-04-12T07:14:50.696Z,10.93
2018-04-12T07:17:16.669Z,12.63
2018-04-12T07:19:42.633Z,13.67
2018-04-12T07:22:08.633Z,17.30
2018-04-12T07:24:34.615Z,15.33
2018-04-12T07:27:00.644Z,11.10
2018-04-12T07:29:26.785Z,13.20
2018-04-12T07:31:52.746Z,12.10
2018-04-12T07:34:19.458Z,12.77
2018-04-12T07:36:45.595Z,8.83
2018-04-12T07:39:11.574Z,9.57
2018-04-12T07:41:38.313Z,12.23
2018-04-12T07:44:05.164Z,13.60
2018-04-12T07:46:31.177Z,10.60
2018-04-12T07:48:57.168Z,15.50
2018-04-12T07:51:23.191Z,5.40
2018-04-12T07:53:49.919Z,21.43
2018-04-12T07:56:15.918Z,10.50
2018-04-12T07:58:42.086Z,10.93
2018-04-12T08:01:08.090Z,10.00
2018-04-12T08:03:34.113Z,11.77
2018-04-12T08:06:00.962Z,9.95
2018-04-12T08:08:27.664Z,14.25
2018-04-12T08:10:53.635Z,11.23
2018-04-12T08:13:20.415Z,10.13
2018-04-12T08:15:46.395Z,14.32
2018-04-12T08:18:12.386Z,14.63
2018-04-12T08:20:38.436Z,13.18
2018-04-12T08:23:04.463Z,10.88
2018-04-12T08:25:30.531Z,12.65
2018-04-12T08:27:56.555Z,14.15
2018-04-12T08:30:22.564Z,18.85
2018-04-12T08:32:48.575Z,11.65
2018-04-12T08:35:15.343Z,9.88
2018-04-12T08:37:41.339Z,13.55
2018-04-12T08:40:07.358Z,9.63
2018-04-12T08:42:33.403Z,8.07
2018-04-12T08:44:59.428Z,9.40
2018-04-12T08:47:25.419Z,11.45
2018-04-12T08:49:51.450Z,12.77
2018-04-12T08:52:18.170Z,9.57
2018-04-12T08:54:44.135Z,10.60
2018-04-12T08:57:10.905Z,12.50
2018-04-12T08:59:37.641Z,14.07
2018-04-12T09:02:04.478Z,9.70
2018-04-12T09:04:30.924Z,8.30
2018-04-12T09:06:56.894Z,14.67
2018-04-12T09:09:22.867Z,6.83
2018-04-12T09:11:48.876Z,8.57
2018-04-12T09:14:14.847Z,11.97
2018-04-12T09:16:40.826Z,13.87
2018-04-12T09:19:07.584Z,10.97
2018-04-12T09:21:34.359Z,11.67
2018-04-12T09:24:00.370Z,15.23
2018-04-12T09:26:27.093Z,12.33
2018-04-12T09:28:53.059Z,15.53
2018-04-12T09:31:19.785Z,13.77
2018-04-12T09:33:45.785Z,18.53
2018-04-12T09:36:11.756Z,14.83
2018-04-12T09:38:37.817Z,18.17
2018-04-12T09:41:03.815Z,15.63
2018-04-12T09:43:29.893Z,19.57
2018-04-12T09:45:55.867Z,15.63
2018-04-12T09:48:21.862Z,18.03
2018-04-12T09:50:48.582Z,18.57
2018-04-12T09:53:14.579Z,16.37
2018-04-12T09:55:40.848Z,18.83
2018-04-12T09:58:06.935Z,17.57
2018-04-12T10:00:32.963Z,17.07
2018-04-12T10:02:59.794Z,19.47
2018-04-12T10:05:28.874Z,18.77
2018-04-12T10:08:01.264Z,19.03
2018-04-12T10:10:38.036Z,19.23
2018-04-12T10:13:04.093Z,19.33
2018-04-12T10:15:30.134Z,16.40
2018-04-12T10:17:56.152Z,26.97
2018-04-12T10:20:22.123Z,18.10
2018-04-12T10:22:48.080Z,19.47
2018-04-12T10:25:14.785Z,16.43
2018-04-12T10:27:40.763Z,22.40
2018-04-12T10:30:06.791Z,16.53
2018-04-12T10:32:32.815Z,18.63
2018-04-12T10:35:05.960Z,14.97
2018-04-12T10:37:31.978Z,14.30
2018-04-12T10:39:58.692Z,18.73
2018-04-12T10:42:25.183Z,16.80
2018-04-12T10:44:51.899Z,16.33
2018-04-12T10:47:17.865Z,17.80
2018-04-12T10:49:44.599Z,15.47
2018-04-12T10:52:10.578Z,16.40
2018-04-12T10:54:36.663Z,17.50
2018-04-12T10:57:02.917Z,16.57
2018-04-12T10:59:28.913Z,13.70
2018-04-12T11:01:54.902Z,17.53
2018-04-12T11:04:21.665Z,18.77
2018-04-12T11:06:48.400Z,20.40
2018-04-12T11:09:14.380Z,25.97
2018-04-12T11:11:40.592Z,15.43
2018-04-12T11:14:07.443Z,13.23
2018-04-12T11:16:34.200Z,15.93
2018-04-12T11:19:01.245Z,15.98
2018-04-12T11:21:27.240Z,11.05
2018-04-12T11:23:53.208Z,15.77
2018-04-12T11:26:19.450Z,7.80
2018-04-12T11:28:45.425Z,9.87
2018-04-12T11:31:11.394Z,13.60
2018-04-12T11:33:37.673Z,12.17
2018-04-12T11:36:04.467Z,10.10
2018-04-12T11:38:30.514Z,11.43
2018-04-12T11:40:56.519Z,17.00
2018-04-12T11:43:22.492Z,10.80
2018-04-12T11:45:48.474Z,10.60
2018-04-12T11:48:15.209Z,16.20
2018-04-12T11:50:41.206Z,15.80
2018-04-12T11:53:07.248Z,12.33
2018-04-12T11:55:33.289Z,14.30
2018-04-12T11:57:59.264Z,16.23
2018-04-12T12:00:26.024Z,10.07
2018-04-12T12:02:52.759Z,10.93
2018-04-12T12:05:18.755Z,11.47
2018-04-12T12:07:44.727Z,13.57
2018-04-12T12:10:10.798Z,16.30
2018-04-12T12:12:37.546Z,14.73
2018-04-12T12:15:04.316Z,15.20
2018-04-12T12:17:30.366Z,15.93
2018-04-12T12:19:56.339Z,13.63
2018-04-12T12:22:22.308Z,11.27
2018-04-12T12:24:49.040Z,17.33
2018-04-12T12:27:15.020Z,16.37
2018-04-12T12:29:40.988Z,12.23
2018-04-12T12:32:07.062Z,14.90
2018-04-12T12:34:33.048Z,14.90
2018-04-12T12:36:59.048Z,12.40
2018-04-12T12:39:25.172Z,13.70
2018-04-12T12:41:51.116Z,17.20
2018-04-12T12:44:17.832Z,17.00
2018-04-12T12:46:43.818Z,17.70
2018-04-12T12:49:09.799Z,20.43
2018-04-12T12:51:35.788Z,16.43
2018-04-12T12:54:01.900Z,17.33
2018-04-12T12:56:27.860Z,13.77
2018-04-12T12:58:53.836Z,18.90
2018-04-12T13:01:19.839Z,16.43
2018-04-12T13:03:45.780Z,15.23
2018-04-12T13:06:11.770Z,15.63
2018-04-12T13:08:38.035Z,18.07
2018-04-12T13:11:04.777Z,26.97
2018-04-12T13:13:30.796Z,16.20
2018-04-12T13:15:56.802Z,16.63
2018-04-12T13:18:22.768Z,22.03
2018-04-12T13:20:48.733Z,18.03
2018-04-12T13:23:15.490Z,15.03
2018-04-12T13:25:42.221Z,17.63
2018-04-12T13:28:08.265Z,18.90
2018-04-12T13:30:34.319Z,15.10
2018-04-12T13:33:01.213Z,15.40
2018-04-12T13:35:27.883Z,14.33
2018-04-12T13:37:54.021Z,16.03
2018-04-12T13:40:19.991Z,14.47
2018-04-12T13:42:46.713Z,22.87
2018-04-12T13:45:12.748Z,20.67
2018-04-12T13:47:38.736Z,19.70
2018-04-12T13:50:05.515Z,15.43
2018-04-12T13:52:31.540Z,24.30
2018-04-12T13:54:57.583Z,15.37
2018-04-12T13:57:23.500Z,18.93
2018-04-12T13:59:49.493Z,18.27
2018-04-12T14:02:16.198Z,19.57
2018-04-12T14:04:42.211Z,18.90
2018-04-12T14:07:08.970Z,14.90
2018-04-12T14:09:34.976Z,16.93
2018-04-12T14:12:01.004Z,15.87
2018-04-12T14:14:27.720Z,19.63
2018-04-12T14:16:53.690Z,24.63
2018-04-12T14:19:19.652Z,17.37
2018-04-12T14:21:46.433Z,14.20
2018-04-12T14:24:12.654Z,14.07
2018-04-12T14:26:39.394Z,21.07
2018-04-12T14:29:06.154Z,17.63
2018-04-12T14:31:32.884Z,18.73
2018-04-12T14:33:58.854Z,12.73
2018-04-12T14:36:24.843Z,12.40
2018-04-12T14:38:50.896Z,13.87
2018-04-12T14:41:16.895Z,14.70
2018-04-12T14:43:42.874Z,17.07
2018-04-12T14:46:09.598Z,18.13
2018-04-12T14:48:35.609Z,18.37
2018-04-12T14:51:01.694Z,17.33
2018-04-12T14:53:27.671Z,14.17
2018-04-12T14:55:53.646Z,19.73
2018-04-12T14:58:19.626Z,17.40
2018-04-12T15:00:46.338Z,21.97
2018-04-12T15:03:12.317Z,18.80
2018-04-12T15:05:39.148Z,16.90
2018-04-12T15:08:05.148Z,18.93
2018-04-12T15:10:31.156Z,19.00
2018-04-12T15:12:57.205Z,14.20
2018-04-12T15:15:23.874Z,15.87
2018-04-12T15:17:49.848Z,19.27
2018-04-12T15:20:15.897Z,17.67
2018-04-12T15:22:42.603Z,18.43
2018-04-12T15:25:08.745Z,16.73
2018-04-12T15:27:34.803Z,19.97
2018-04-12T15:30:00.848Z,19.80
2018-04-12T15:32:27.570Z,17.23
2018-04-12T15:34:53.590Z,18.13
2018-04-12T15:37:19.564Z,14.53
2018-04-12T15:39:45.588Z,18.13
2018-04-12T15:42:11.835Z,16.07
2018-04-12T15:44:37.892Z,17.97
2018-04-12T15:47:04.696Z,17.20
2018-04-12T15:49:30.874Z,19.43
2018-04-12T15:51:56.859Z,22.63
2018-04-12T15:54:22.844Z,18.30
2018-04-12T15:56:48.867Z,17.63
2018-04-12T15:59:14.874Z,20.47
2018-04-12T16:01:40.902Z,15.07
2018-04-12T16:04:07.101Z,18.87
2018-04-12T16:06:33.095Z,15.03
2018-04-12T16:08:59.076Z,21.07
2018-04-12T16:11:25.876Z,13.10
2018-04-12T16:13:51.839Z,11.30
2018-04-12T16:16:17.825Z,14.93
2018-04-12T16:18:44.025Z,15.93
2018-04-12T16:21:10.032Z,12.97
2018-04-12T16:23:36.064Z,15.07
2018-04-12T16:26:02.457Z,15.10
2018-04-12T16:28:28.464Z,11.27
2018-04-12T16:30:54.399Z,12.77
2018-04-12T16:33:20.415Z,16.33
2018-04-12T16:35:46.386Z,15.50
2018-04-12T16:38:12.350Z,15.30
2018-04-12T16:40:39.121Z,13.97
2018-04-12T16:43:05.134Z,12.57
2018-04-12T16:45:31.924Z,16.27
2018-04-12T16:47:58.106Z,16.63
2018-04-12T16:50:24.848Z,16.07
2018-04-12T16:52:50.823Z,13.80
2018-04-12T16:55:17.656Z,14.30
2018-04-12T16:57:43.626Z,14.30
2018-04-12T17:00:09.606Z,14.23
2018-04-12T17:02:35.703Z,14.63
2018-04-12T17:05:08.709Z,13.77
2018-04-12T17:07:34.699Z,12.30
2018-04-12T17:10:00.731Z,11.67
2018-04-12T17:12:26.698Z,14.53
2018-04-12T17:14:53.450Z,16.13
2018-04-12T17:17:20.177Z,13.67
2018-04-12T17:19:46.152Z,15.03
2018-04-12T17:22:12.392Z,15.77
2018-04-12T17:24:38.425Z,18.07
2018-04-12T17:27:04.426Z,13.47
2018-04-12T17:29:31.392Z,16.63
2018-04-12T17:31:58.122Z,14.70
2018-04-12T17:34:24.103Z,14.33
2018-04-12T17:36:50.124Z,14.87
2018-04-12T17:39:16.838Z,13.77
2018-04-12T17:41:42.806Z,12.77
2018-04-12T17:44:09.618Z,16.47
2018-04-12T17:46:35.608Z,10.33
2018-04-12T17:49:09.380Z,12.50
2018-04-12T17:51:35.398Z,10.30
2018-04-12T17:54:01.418Z,9.13
2018-04-12T17:56:27.393Z,11.47
2018-04-12T17:58:53.365Z,12.47
2018-04-12T18:01:20.088Z,11.27
2018-04-12T18:03:46.066Z,7.17
2018-04-12T18:06:12.801Z,8.70
2018-04-12T18:08:40.331Z,7.93
2018-04-12T18:11:06.347Z,9.60
2018-04-12T18:13:32.386Z,6.17
2018-04-12T18:15:58.369Z,5.87
2018-04-12T18:18:24.529Z,10.50
2018-04-12T18:20:51.274Z,5.57
2018-04-12T18:23:17.986Z,5.33
2018-04-12T18:25:44.021Z,9.73
2018-04-12T18:28:10.116Z,7.47
2018-04-12T18:30:36.889Z,9.07
2018-04-12T18:33:02.996Z,6.67
2018-04-12T18:35:30.139Z,9.30
2018-04-12T18:37:56.854Z,9.40
2018-04-12T18:40:23.080Z,7.27
2018-04-12T18:42:49.076Z,6.63
2018-04-12T18:45:15.038Z,5.57
2018-04-12T18:47:41.785Z,10.17
2018-04-12T18:50:08.550Z,7.43
2018-04-12T18:52:34.772Z,6.47
2018-04-12T18:55:00.846Z,9.17
2018-04-12T18:57:26.823Z,8.70
2018-04-12T18:59:52.778Z,6.80
2018-04-12T19:02:19.616Z,5.43
2018-04-12T19:04:45.585Z,9.13
2018-04-12T19:07:11.571Z,10.27
2018-04-12T19:09:37.765Z,14.17
2018-04-12T19:12:03.811Z,5.63
2018-04-12T19:14:29.809Z,6.13
2018-04-12T19:16:56.570Z,6.40
2018-04-12T19:19:23.289Z,4.43
2018-04-12T19:21:49.265Z,8.50
2018-04-12T19:24:16.029Z,6.87
2018-04-12T19:26:41.991Z,7.83
2018-04-12T19:29:07.992Z,8.30
2018-04-12T19:31:34.739Z,11.37
2018-04-12T19:34:01.503Z,6.53
2018-04-12T19:36:27.475Z,6.93
2018-04-12T19:38:53.480Z,11.40
2018-04-12T19:41:19.458Z,8.27
2018-04-12T19:43:45.441Z,10.90
2018-04-12T19:46:12.301Z,6.20
2018-04-12T19:48:39.013Z,8.80
2018-04-12T19:51:05.045Z,4.40
2018-04-12T19:53:31.091Z,10.10
2018-04-12T19:55:57.087Z,10.97
2018-04-12T19:58:23.042Z,5.60
2018-04-12T20:00:49.206Z,4.27
2018-04-12T20:03:15.226Z,6.23
2018-04-12T20:05:41.220Z,4.97
2018-04-12T20:08:07.240Z,4.10
2018-04-12T20:10:34.050Z,4.37
2018-04-12T20:13:00.115Z,5.37
2018-04-12T20:15:26.314Z,6.27
2018-04-12T20:17:52.309Z,7.57
2018-04-12T20:20:19.052Z,4.93
2018-04-12T20:22:45.224Z,9.57
2018-04-12T20:25:11.164Z,7.23
2018-04-12T20:27:37.275Z,5.73
2018-04-12T20:30:03.527Z,3.37
2018-04-12T20:32:29.503Z,7.87
2018-04-12T20:34:55.474Z,6.87
2018-04-12T20:37:21.475Z,4.67
2018-04-12T20:39:53.703Z,3.03
2018-04-12T20:42:20.447Z,5.53
2018-04-12T20:44:47.175Z,3.53
2018-04-12T20:47:13.147Z,6.73
2018-04-12T20:49:39.854Z,6.20
2018-04-12T20:52:05.888Z,3.83
2018-04-12T20:54:31.911Z,3.77
2018-04-12T20:56:57.886Z,4.03
2018-04-12T20:59:23.901Z,2.97
2018-04-12T21:01:50.072Z,3.60
2018-04-12T21:04:16.804Z,2.60
2018-04-12T21:06:43.558Z,4.03
2018-04-12T21:09:09.545Z,4.27
2018-04-12T21:11:35.585Z,3.97
2018-04-12T21:14:01.663Z,5.27
2018-04-12T21:16:34.642Z,9.83
2018-04-12T21:19:00.663Z,5.97
2018-04-12T21:21:26.628Z,4.77
2018-04-12T21:23:52.590Z,3.07
2018-04-12T21:26:18.565Z,5.50
2018-04-12T21:28:44.556Z,7.17
2018-04-12T21:31:12.000Z,7.57
2018-04-12T21:33:38.172Z,7.17
2018-04-12T21:36:04.401Z,8.63
2018-04-12T21:38:30.651Z,10.00
2018-04-12T21:40:56.770Z,5.63
2018-04-12T21:43:22.753Z,5.07
2018-04-12T21:45:48.731Z,3.90
2018-04-12T21:48:14.715Z,6.80
2018-04-12T21:50:41.427Z,3.87
2018-04-12T21:53:07.400Z,2.27
2018-04-12T21:55:34.355Z,3.37
2018-04-12T21:58:01.122Z,2.77
2018-04-12T22:00:27.120Z,3.33
2018-04-12T22:02:53.102Z,4.03
2018-04-12T22:05:19.072Z,4.67
2018-04-12T22:07:45.033Z,8.37
2018-04-12T22:10:11.042Z,3.73
2018-04-12T22:12:37.092Z,7.20
2018-04-12T22:15:03.173Z,6.83
2018-04-12T22:17:29.174Z,3.13
2018-04-12T22:19:55.149Z,5.93
2018-04-12T22:22:21.126Z,4.67
2018-04-12T22:24:47.370Z,6.83
2018-04-12T22:27:13.347Z,4.63
2018-04-12T22:29:40.147Z,3.20
2018-04-12T22:32:06.218Z,4.53
2018-04-12T22:34:32.223Z,4.40
2018-04-12T22:36:58.240Z,4.47
2018-04-12T22:39:24.423Z,6.50
2018-04-12T22:41:50.389Z,5.80
2018-04-12T22:44:17.103Z,5.87
2018-04-12T22:46:43.092Z,6.17
2018-04-12T22:49:09.073Z,9.80
2018-04-12T22:51:35.139Z,5.20
2018-04-12T22:54:01.938Z,5.83
2018-04-12T22:56:28.590Z,6.80
2018-04-12T22:58:54.551Z,4.57
2018-04-12T23:01:20.634Z,6.20
2018-04-12T23:03:47.558Z,4.77
2018-04-12T23:06:13.536Z,3.90
2018-04-12T23:08:39.572Z,7.33
2018-04-12T23:11:05.569Z,5.70
2018-04-12T23:13:31.586Z,5.70
2018-04-12T23:15:57.585Z,5.77
2018-04-12T23:18:23.552Z,6.70
2018-04-12T23:20:49.538Z,5.27
2018-04-12T23:23:16.298Z,5.10
2018-04-12T23:25:42.254Z,8.40
2018-04-12T23:28:08.224Z,5.37
2018-04-12T23:30:34.279Z,5.10
2018-04-12T23:33:00.275Z,11.80
2018-04-12T23:35:26.259Z,6.23
2018-04-12T23:37:53.121Z,6.20
2018-04-12T23:40:19.826Z,5.10
2018-04-12T23:42:45.815Z,11.03
2018-04-12T23:45:11.821Z,5.80
2018-04-12T23:47:37.796Z,5.83
2018-04-12T23:50:03.826Z,7.53
2018-04-12T23:52:29.875Z,6.67
2018-04-12T23:54:55.847Z,8.33
2018-04-12T23:57:21.811Z,7.80
2018-04-12T23:59:49.046Z,8.63
